Time;durP1;ratioP1;P1;durP2;ratioP2;P2;SDS_P1;SDS_P2;PMS_P1;PMS_P2;Temp;Humidity;BMP_temperature;BMP_pressure;BME280_temperature;BME280_humidity;BME280_pressure;Samples;Min_cycle;Max_cycle;Signal;HPM_P1;HPM_P2
2022/07/27 00:00:23;;;;;;;;;;;;;;;15.83;70.78;100494.20;1649313;84;20196;-78
2022/07/27 00:02:51;;;;;;;;;;;;;;;15.79;70.80;100496.98;1672975;84;20150;-78
2022/07/27 00:05:19;;;;;;;;;;;;;;;15.79;70.85;100498.31;1663586;85;20172;-78
2022/07/27 00:07:45;;;;;;;;;;;;;;;15.78;70.88;100491.27;1645987;87;20160;-78
2022/07/27 00:10:11;;;;;;;;;;;;;;;15.81;70.91;100490.87;1653660;87;20498;-78
2022/07/27 00:12:37;;;;;;;;;;;;;;;15.81;70.92;100482.29;1654081;85;20195;-78
2022/07/27 00:15:04;;;;;;;;;;;;;;;15.83;70.97;100482.09;1656828;84;21902;-78
2022/07/27 00:17:30;;;;;;;;;;;;;;;15.78;70.94;100477.31;1673169;84;20174;-78
2022/07/27 00:19:56;;;;;;;;;;;;;;;15.75;70.98;100475.55;1673120;84;20211;-78
2022/07/27 00:22:22;;;;;;;;;;;;;;;15.72;71.05;100483.52;1638301;87;20595;-78
2022/07/27 00:24:48;;;;;;;;;;;;;;;15.72;71.12;100486.70;1645924;87;20185;-78
2022/07/27 00:27:14;;;;;;;;;;;;;;;15.69;71.17;100480.39;1646169;86;21148;-78
2022/07/27 00:29:40;;;;;;;;;;;;;;;15.67;71.20;100478.41;1645726;86;20462;-78
2022/07/27 00:32:06;;;;;;;;;;;;;;;15.63;71.23;100481.17;1648910;86;20228;-79
2022/07/27 00:34:32;;;;;;;;;;;;;;;15.59;71.28;100486.12;1646061;85;20194;-78
2022/07/27 00:36:58;;;;;;;;;;;;;;;15.60;71.32;100484.27;1672141;84;20169;-78
2022/07/27 00:39:24;;;;;;;;;;;;;;;15.57;71.36;100484.67;1673351;85;21784;-79
2022/07/27 00:41:50;;;;;;;;;;;;;;;15.51;71.39;100487.66;1671415;85;20187;-79
2022/07/27 00:44:26;;;;;;;;;;;;;;;15.43;71.40;100492.64;1666847;86;20188;-79
2022/07/27 00:46:52;;;;;;;;;;;;;;;15.39;71.44;100492.73;1658920;86;20187;-78
2022/07/27 00:49:18;;;;;;;;;;;;;;;15.36;71.49;100487.75;1640977;86;20206;-78
2022/07/27 00:51:44;;;;;;;;;;;;;;;15.33;71.52;100488.16;1657777;86;21236;-78
2022/07/27 00:54:10;;;;;;;;;;;;;;;15.32;71.57;100481.11;1668695;85;20242;-78
2022/07/27 00:56:36;;;;;;;;;;;;;;;15.27;71.63;100487.58;1657463;84;20192;-78
2022/07/27 00:59:02;;;;;;;;;;;;;;;15.20;71.68;100496.11;1673318;85;20196;-78
2022/07/27 01:01:28;;;;;;;;;;;;;;;15.17;71.75;100492.48;1663258;84;20199;-78
2022/07/27 01:03:54;;;;;;;;;;;;;;;15.15;71.78;100490.52;1658710;86;21766;-78
2022/07/27 01:06:20;;;;;;;;;;;;;;;15.14;71.80;100493.39;1675981;85;20466;-78
2022/07/27 01:08:45;;;;;;;;;;;;;;;15.08;71.84;100486.96;1673852;84;20253;-78
2022/07/27 01:11:11;;;;;;;;;;;;;;;15.00;71.90;100481.73;1638720;87;20158;-78
2022/07/27 01:13:37;;;;;;;;;;;;;;;14.98;71.98;100481.12;1658711;85;20220;-78
2022/07/27 01:16:06;;;;;;;;;;;;;;;14.97;72.03;100486.16;1673106;84;21181;-78
2022/07/27 01:18:36;;;;;;;;;;;;;;;14.92;72.07;100477.84;1647951;84;20160;-78
2022/07/27 01:21:04;;;;;;;;;;;;;;;14.94;72.10;100482.53;1644643;86;20185;-78
2022/07/27 01:23:33;;;;;;;;;;;;;;;14.96;72.14;100481.80;1644491;86;20241;-78
2022/07/27 01:25:59;;;;;;;;;;;;;;;14.99;72.20;100483.59;1645863;85;20171;-78
2022/07/27 01:28:25;;;;;;;;;;;;;;;15.02;72.19;100483.73;1673430;84;21047;-79
2022/07/27 01:30:52;;;;;;;;;;;;;;;15.05;72.24;100490.05;1673722;84;20151;-79
2022/07/27 01:33:24;;;;;;;;;;;;;;;15.06;72.24;100489.00;1673549;85;20496;-78
2022/07/27 01:35:45;;;;;;;;;;;;;;;15.06;72.26;100483.63;1672924;85;20154;-78
2022/07/27 01:38:11;;;;;;;;;;;;;;;15.07;72.27;100482.61;1673113;85;20204;-78
2022/07/27 01:40:38;;;;;;;;;;;;;;;15.03;72.29;100481.34;1673592;85;21159;-78
2022/07/27 01:43:04;;;;;;;;;;;;;;;15.02;72.33;100486.41;1673407;84;20178;-78
2022/07/27 01:45:30;;;;;;;;;;;;;;;15.04;72.39;100491.06;1673541;84;20735;-78
2022/07/27 01:47:56;;;;;;;;;;;;;;;15.02;72.40;100486.92;1673239;85;20184;-79
2022/07/27 01:50:21;;;;;;;;;;;;;;;15.00;72.43;100489.80;1673491;85;20185;-78
2022/07/27 01:52:47;;;;;;;;;;;;;;;14.99;72.47;100482.75;1673528;85;21802;-79
2022/07/27 01:55:13;;;;;;;;;;;;;;;15.05;72.50;100495.92;1673393;84;20176;-78
2022/07/27 01:57:39;;;;;;;;;;;;;;;15.07;72.52;100492.01;1673178;85;20301;-78
2022/07/27 02:00:07;;;;;;;;;;;;;;;15.09;72.53;100485.95;1673124;85;20248;-79
2022/07/27 02:02:33;;;;;;;;;;;;;;;15.11;72.54;100482.53;1678546;83;20178;-78
2022/07/27 02:04:59;;;;;;;;;;;;;;;15.13;72.56;100489.88;1673420;84;20985;-78
2022/07/27 02:07:25;;;;;;;;;;;;;;;15.17;72.60;100491.65;1672601;85;20212;-79
2022/07/27 02:09:51;;;;;;;;;;;;;;;15.17;72.62;100493.83;1673600;84;20244;-79
2022/07/27 02:12:35;;;;;;;;;;;;;;;15.12;72.64;100485.55;1673079;85;20165;-78
2022/07/27 02:15:13;;;;;;;;;;;;;;;15.13;72.68;100481.01;1673232;84;20182;-78
2022/07/27 02:17:39;;;;;;;;;;;;;;;15.14;72.73;100483.98;1672729;84;20824;-79
2022/07/27 02:20:06;;;;;;;;;;;;;;;15.09;72.78;100485.95;1652655;84;20187;-79
2022/07/27 02:22:32;;;;;;;;;;;;;;;15.04;72.84;100487.03;1644779;86;20444;-79
2022/07/27 02:24:58;;;;;;;;;;;;;;;15.01;72.88;100492.80;1644758;86;20189;-79
2022/07/27 02:27:23;;;;;;;;;;;;;;;15.01;72.93;100492.80;1660427;85;20280;-78
2022/07/27 02:29:49;;;;;;;;;;;;;;;15.04;72.97;100496.44;1673427;85;21161;-79
2022/07/27 02:32:15;;;;;;;;;;;;;;;15.07;73.02;100489.83;1673431;85;20247;-79
2022/07/27 02:34:41;;;;;;;;;;;;;;;15.09;73.04;100500.72;1673535;84;20232;-78
2022/07/27 02:37:07;;;;;;;;;;;;;;;15.08;73.05;100508.45;1673030;85;20431;-79
2022/07/27 02:39:33;;;;;;;;;;;;;;;15.05;73.12;100515.56;1673488;84;20382;-78
2022/07/27 02:41:59;;;;;;;;;;;;;;;15.05;73.14;100517.41;1673549;85;21181;-78
2022/07/27 02:44:25;;;;;;;;;;;;;;;15.09;73.19;100512.81;1673473;85;21348;-79
2022/07/27 02:46:51;;;;;;;;;;;;;;;15.14;73.18;100515.72;1672805;85;20212;-78
2022/07/27 02:49:17;;;;;;;;;;;;;;;15.20;73.22;100518.95;1673490;84;20200;-79
2022/07/27 02:51:43;;;;;;;;;;;;;;;15.24;73.23;100510.81;1649611;84;20201;-78
2022/07/27 02:54:08;;;;;;;;;;;;;;;15.29;73.25;100519.13;1638251;87;21199;-78
2022/07/27 02:56:34;;;;;;;;;;;;;;;15.33;73.27;100521.75;1643574;85;20200;-78
2022/07/27 02:59:00;;;;;;;;;;;;;;;15.33;73.27;100519.56;1673380;84;20224;-78
2022/07/27 03:01:26;;;;;;;;;;;;;;;15.35;73.32;100513.47;1673435;85;20587;-79
2022/07/27 03:03:52;;;;;;;;;;;;;;;15.39;73.33;100515.57;1673295;85;20176;-78
2022/07/27 03:06:18;;;;;;;;;;;;;;;15.42;73.34;100513.83;1673275;85;21757;-78
2022/07/27 03:08:44;;;;;;;;;;;;;;;15.44;73.36;100513.12;1672978;85;20212;-78
2022/07/27 03:11:10;;;;;;;;;;;;;;;15.45;73.35;100509.91;1673542;84;20264;-78
2022/07/27 03:13:36;;;;;;;;;;;;;;;15.45;73.37;100497.30;1673009;85;20173;-78
2022/07/27 03:16:02;;;;;;;;;;;;;;;15.40;73.38;100499.77;1673510;85;20630;-79
2022/07/27 03:18:28;;;;;;;;;;;;;;;15.37;73.47;100502.86;1672667;85;21141;-79
2022/07/27 03:20:54;;;;;;;;;;;;;;;15.35;73.52;100510.27;1673156;85;20169;-78
2022/07/27 03:23:20;;;;;;;;;;;;;;;15.37;73.56;100519.49;1673465;84;20216;-79
2022/07/27 03:25:46;;;;;;;;;;;;;;;15.39;73.58;100516.08;1673043;85;20161;-78
2022/07/27 03:28:11;;;;;;;;;;;;;;;15.41;73.62;100514.84;1673593;85;20165;-78
2022/07/27 03:30:37;;;;;;;;;;;;;;;15.47;73.69;100514.58;1673427;84;21183;-79
2022/07/27 03:33:03;;;;;;;;;;;;;;;15.55;73.71;100520.34;1673347;85;20188;-78
2022/07/27 03:35:29;;;;;;;;;;;;;;;15.62;73.72;100518.52;1673154;85;20751;-79
2022/07/27 03:37:55;;;;;;;;;;;;;;;15.68;73.74;100516.37;1673409;85;20160;-78
2022/07/27 03:40:21;;;;;;;;;;;;;;;15.68;73.71;100512.34;1673539;85;20169;-79
2022/07/27 03:42:47;;;;;;;;;;;;;;;15.73;73.74;100512.55;1673485;84;21259;-79
2022/07/27 03:45:13;;;;;;;;;;;;;;;15.80;73.76;100508.02;1673254;84;20184;-79
2022/07/27 03:47:39;;;;;;;;;;;;;;;15.83;73.76;100511.69;1673125;85;20846;-79
2022/07/27 03:50:05;;;;;;;;;;;;;;;15.88;73.78;100508.69;1673389;84;20176;-78
2022/07/27 03:52:31;;;;;;;;;;;;;;;15.88;73.76;100514.07;1673362;84;20169;-78
2022/07/27 03:54:57;;;;;;;;;;;;;;;15.88;73.78;100514.58;1672643;85;21871;-78
2022/07/27 03:57:24;;;;;;;;;;;;;;;15.89;73.78;100514.39;1646013;87;20218;-79
2022/07/27 03:59:50;;;;;;;;;;;;;;;15.93;73.79;100516.16;1645772;86;20160;-79
2022/07/27 04:02:16;;;;;;;;;;;;;;;15.92;73.75;100509.95;1646032;86;20547;-78
2022/07/27 04:04:42;;;;;;;;;;;;;;;15.93;73.79;100510.78;1643240;86;20185;-78
2022/07/27 04:07:08;;;;;;;;;;;;;;;15.94;73.82;100505.70;1674940;85;21180;-78
2022/07/27 04:09:36;;;;;;;;;;;;;;;15.95;73.84;100504.16;1676234;85;20171;-78
2022/07/27 04:12:03;;;;;;;;;;;;;;;15.95;73.84;100499.30;1673491;84;20158;-78
2022/07/27 04:14:29;;;;;;;;;;;;;;;15.99;73.82;100502.73;1673175;84;20454;-78
2022/07/27 04:16:55;;;;;;;;;;;;;;;16.10;73.81;100505.34;1672658;85;20177;-78
2022/07/27 04:19:21;;;;;;;;;;;;;;;16.14;73.80;100507.95;1669592;85;21064;-79
2022/07/27 04:21:47;;;;;;;;;;;;;;;16.16;73.76;100519.33;1667372;85;20228;-79
2022/07/27 04:24:13;;;;;;;;;;;;;;;16.17;73.78;100514.27;1668266;86;20204;-79
2022/07/27 04:26:39;;;;;;;;;;;;;;;16.12;73.79;100517.23;1667772;84;20217;-79
2022/07/27 04:29:04;;;;;;;;;;;;;;;16.02;73.87;100517.63;1668281;86;20859;-79
2022/07/27 04:31:30;;;;;;;;;;;;;;;15.98;73.90;100510.48;1668178;86;21184;-79
2022/07/27 04:33:56;;;;;;;;;;;;;;;15.96;73.95;100521.97;1668044;86;20205;-79
2022/07/27 04:36:22;;;;;;;;;;;;;;;15.92;74.01;100519.88;1668218;86;20240;-79
2022/07/27 04:38:48;;;;;;;;;;;;;;;15.87;74.09;100533.08;1668230;85;20157;-79
2022/07/27 04:41:14;;;;;;;;;;;;;;;15.83;74.20;100531.31;1668519;85;20185;-79
2022/07/27 04:43:40;;;;;;;;;;;;;;;15.80;74.26;100532.23;1667993;86;21102;-79
2022/07/27 04:46:06;;;;;;;;;;;;;;;15.79;74.36;100535.97;1668373;86;20239;-79
2022/07/27 04:48:32;;;;;;;;;;;;;;;15.73;74.47;100538.92;1668239;86;20264;-79
2022/07/27 04:50:58;;;;;;;;;;;;;;;15.73;74.56;100540.78;1668172;86;20454;-79
2022/07/27 04:53:24;;;;;;;;;;;;;;;15.75;74.69;100530.67;1668120;85;20175;-79
2022/07/27 04:55:50;;;;;;;;;;;;;;;15.78;74.75;100536.98;1657510;86;21159;-79
2022/07/27 04:58:16;;;;;;;;;;;;;;;15.81;74.82;100532.04;1653830;85;20236;-79
2022/07/27 05:00:46;;;;;;;;;;;;;;;15.82;74.86;100542.28;1671522;84;20228;-79
2022/07/27 05:03:09;;;;;;;;;;;;;;;15.77;74.93;100546.91;1667499;84;20469;-79
2022/07/27 05:05:36;;;;;;;;;;;;;;;15.77;75.01;100548.77;1664748;85;20268;-79
2022/07/27 05:08:02;;;;;;;;;;;;;;;15.73;75.06;100555.06;1639926;87;20996;-78
2022/07/27 05:10:28;;;;;;;;;;;;;;;15.70;75.14;100553.28;1639770;87;20200;-79
2022/07/27 05:12:53;;;;;;;;;;;;;;;15.68;75.21;100555.35;1663025;86;20256;-79
2022/07/27 05:15:20;;;;;;;;;;;;;;;15.64;75.27;100562.16;1668048;86;20234;-79
2022/07/27 05:17:46;;;;;;;;;;;;;;;15.64;75.32;100561.64;1668210;85;20479;-79
2022/07/27 05:20:12;;;;;;;;;;;;;;;15.65;75.37;100563.31;1667883;85;21210;-79
2022/07/27 05:22:38;;;;;;;;;;;;;;;15.67;75.43;100565.78;1667612;85;20446;-79
2022/07/27 05:25:04;;;;;;;;;;;;;;;15.68;75.48;100574.17;1668354;85;20224;-79
2022/07/27 05:27:30;;;;;;;;;;;;;;;15.72;75.49;100572.25;1668132;85;20249;-79
2022/07/27 05:29:56;;;;;;;;;;;;;;;15.78;75.51;100585.39;1668356;86;20225;-79
2022/07/27 05:32:22;;;;;;;;;;;;;;;15.85;75.52;100588.95;1667995;85;21177;-79
2022/07/27 05:34:48;;;;;;;;;;;;;;;15.90;75.47;100591.88;1667605;86;20690;-78
2022/07/27 05:37:14;;;;;;;;;;;;;;;15.94;75.44;100594.46;1668359;85;20311;-79
2022/07/27 05:39:41;;;;;;;;;;;;;;;16.00;75.43;100589.65;1653531;85;20231;-78
2022/07/27 05:42:09;;;;;;;;;;;;;;;16.06;75.37;100596.91;1667460;86;20158;-79
2022/07/27 05:44:35;;;;;;;;;;;;;;;16.12;75.28;100600.13;1667917;85;21766;-78
2022/07/27 05:47:01;;;;;;;;;;;;;;;16.10;75.15;100607.59;1668022;86;20172;-78
2022/07/27 05:49:27;;;;;;;;;;;;;;;16.10;75.01;100604.06;1669675;84;20228;-79
2022/07/27 05:51:53;;;;;;;;;;;;;;;16.09;74.84;100607.27;1667868;86;20764;-79
2022/07/27 05:54:19;;;;;;;;;;;;;;;16.15;74.70;100606.45;1667684;85;20224;-79
2022/07/27 05:56:45;;;;;;;;;;;;;;;16.25;74.53;100615.52;1667544;86;21724;-79
2022/07/27 05:59:11;;;;;;;;;;;;;;;16.32;74.32;100611.83;1670426;85;20498;-79
2022/07/27 06:01:37;;;;;;;;;;;;;;;16.31;74.03;100612.85;1668041;85;20191;-79
2022/07/27 06:04:03;;;;;;;;;;;;;;;16.40;73.82;100621.05;1676309;84;20520;-79
2022/07/27 06:09:14;;;;;;;;;;;;;;;16.57;73.27;100623.42;1666303;86;21137;-79
2022/07/27 06:11:40;;;;;;;;;;;;;;;16.65;72.94;100623.21;1639748;87;20217;-79
2022/07/27 06:14:06;;;;;;;;;;;;;;;16.79;72.66;100628.94;1648266;87;20171;-79
2022/07/27 06:16:32;;;;;;;;;;;;;;;17.33;72.34;100629.61;1657095;84;20244;-79
2022/07/27 06:18:58;;;;;;;;;;;;;;;17.76;71.84;100636.76;1655413;85;20242;-79
2022/07/27 06:21:26;;;;;;;;;;;;;;;17.93;71.28;100635.77;1682137;85;21135;-80
2022/07/27 06:23:54;;;;;;;;;;;;;;;17.94;70.73;100638.79;1676174;85;20188;-80
2022/07/27 06:26:20;;;;;;;;;;;;;;;17.98;70.19;100641.34;1672124;84;20174;-80
2022/07/27 06:28:46;;;;;;;;;;;;;;;18.04;69.62;100641.87;1671279;84;20160;-80
2022/07/27 06:31:12;;;;;;;;;;;;;;;18.31;69.16;100637.19;1673230;84;20183;-79
2022/07/27 06:33:38;;;;;;;;;;;;;;;18.41;68.50;100642.44;1670091;85;21160;-79
2022/07/27 06:36:07;;;;;;;;;;;;;;;18.45;67.98;100638.78;1660910;85;20157;-79
2022/07/27 06:38:32;;;;;;;;;;;;;;;18.79;67.48;100637.58;1661294;86;20169;-79
2022/07/27 06:40:58;;;;;;;;;;;;;;;19.30;66.77;100623.37;1650473;85;20187;-79
2022/07/27 06:43:26;;;;;;;;;;;;;;;19.73;66.06;100623.95;1610269;87;20217;-79
2022/07/27 06:45:54;;;;;;;;;;;;;;;20.13;65.38;100622.44;1638757;86;21764;-79
2022/07/27 06:48:20;;;;;;;;;;;;;;;20.66;64.63;100633.44;1660378;85;20144;-79
2022/07/27 06:50:48;;;;;;;;;;;;;;;20.96;63.76;100632.08;1661088;86;20250;-79
2022/07/27 06:53:14;;;;;;;;;;;;;;;20.83;62.82;100630.37;1656419;86;20614;-80
2022/07/27 06:55:40;;;;;;;;;;;;;;;20.50;62.21;100626.48;1655871;85;20290;-80
2022/07/27 06:58:06;;;;;;;;;;;;;;;20.33;61.75;100625.78;1643810;84;21140;-80
2022/07/27 07:00:32;;;;;;;;;;;;;;;20.12;61.33;100631.64;1647785;85;20253;-79
2022/07/27 07:02:59;;;;;;;;;;;;;;;19.95;60.84;100633.27;1651295;85;20248;-80
2022/07/27 07:05:25;;;;;;;;;;;;;;;19.84;60.52;100623.21;1639310;87;20212;-79
2022/07/27 07:07:51;;;;;;;;;;;;;;;19.79;60.29;100626.58;1627193;88;20149;-80
2022/07/27 07:10:17;;;;;;;;;;;;;;;19.95;60.08;100626.50;1635450;87;22027;-79
2022/07/27 07:12:43;;;;;;;;;;;;;;;20.09;59.83;100625.84;1647026;85;20272;-78
2022/07/27 07:15:09;;;;;;;;;;;;;;;20.06;59.54;100631.16;1662572;85;20276;-79
2022/07/27 07:17:35;;;;;;;;;;;;;;;20.03;59.33;100639.74;1652226;85;20653;-79
2022/07/27 07:20:03;;;;;;;;;;;;;;;19.97;59.00;100639.30;1658395;85;20217;-80
2022/07/27 07:22:29;;;;;;;;;;;;;;;19.89;58.73;100636.87;1674410;84;21275;-80
2022/07/27 07:24:55;;;;;;;;;;;;;;;20.13;58.63;100630.56;1674754;85;20439;-80
2022/07/27 07:27:22;;;;;;;;;;;;;;;20.62;58.30;100636.87;1670383;84;20283;-79
2022/07/27 07:29:48;;;;;;;;;;;;;;;21.05;58.00;100632.03;1677669;84;20168;-81
2022/07/27 07:32:15;;;;;;;;;;;;;;;21.28;57.43;100628.58;1675896;84;20164;-83
2022/07/27 07:34:41;;;;;;;;;;;;;;;21.24;57.04;100630.93;1683250;83;21695;-80
2022/07/27 07:37:07;;;;;;;;;;;;;;;21.47;56.74;100622.48;1671656;85;20465;-80
2022/07/27 07:39:33;;;;;;;;;;;;;;;21.74;56.29;100627.77;1682280;83;20196;-80
2022/07/27 07:42:00;;;;;;;;;;;;;;;21.56;55.89;100623.28;1675571;84;20232;-80
2022/07/27 07:44:26;;;;;;;;;;;;;;;21.28;55.43;100629.94;1674660;84;20595;-80
2022/07/27 07:46:52;;;;;;;;;;;;;;;20.93;55.25;100623.06;1666297;84;21936;-80
2022/07/27 07:49:18;;;;;;;;;;;;;;;20.91;55.10;100627.87;1666394;85;20853;-80
2022/07/27 07:51:43;;;;;;;;;;;;;;;20.80;54.81;100631.37;1635608;86;20261;-81
2022/07/27 07:54:09;;;;;;;;;;;;;;;21.02;54.52;100632.50;1672707;84;20161;-80
2022/07/27 07:56:35;;;;;;;;;;;;;;;20.97;54.07;100631.55;1673311;85;20228;-81
2022/07/27 07:59:03;;;;;;;;;;;;;;;21.01;53.75;100626.77;1673236;85;21054;-80
2022/07/27 08:01:29;;;;;;;;;;;;;;;21.00;53.35;100633.27;1673453;84;20222;-80
2022/07/27 08:03:55;;;;;;;;;;;;;;;21.27;53.15;100631.81;1673536;84;20180;-80
2022/07/27 08:06:21;;;;;;;;;;;;;;;21.72;52.80;100638.84;1673127;84;20218;-81
2022/07/27 08:08:47;;;;;;;;;;;;;;;21.66;52.20;100633.54;1673393;85;20580;-80
2022/07/27 08:11:13;;;;;;;;;;;;;;;21.73;51.81;100634.25;1672161;85;21305;-80
2022/07/27 08:13:38;;;;;;;;;;;;;;;21.96;51.35;100647.82;1673084;85;20669;-81
2022/07/27 08:16:04;;;;;;;;;;;;;;;22.27;50.93;100650.12;1673391;85;20204;-80
2022/07/27 08:18:30;;;;;;;;;;;;;;;22.63;50.61;100639.95;1673418;85;20195;-80
2022/07/27 08:20:56;;;;;;;;;;;;;;;22.89;50.11;100637.52;1669599;85;20201;-80
2022/07/27 08:23:22;;;;;;;;;;;;;;;23.02;49.44;100633.64;1668207;86;22402;-80
2022/07/27 08:25:48;;;;;;;;;;;;;;;22.79;48.59;100633.78;1668187;85;20180;-80
2022/07/27 08:28:14;;;;;;;;;;;;;;;22.78;47.69;100638.92;1667873;86;20196;-80
2022/07/27 08:30:39;;;;;;;;;;;;;;;22.89;47.08;100648.39;1668129;86;20228;-80
2022/07/27 08:33:05;;;;;;;;;;;;;;;22.98;46.35;100651.52;1668036;86;20177;-81
2022/07/27 08:35:33;;;;;;;;;;;;;;;22.90;45.52;100646.50;1667842;85;21526;-81
2022/07/27 08:37:59;;;;;;;;;;;;;;;23.00;45.26;100651.28;1667998;85;20155;-81
2022/07/27 08:40:25;;;;;;;;;;;;;;;23.08;44.96;100648.17;1667877;85;20158;-81
2022/07/27 08:42:51;;;;;;;;;;;;;;;23.30;44.84;100653.98;1668137;85;20143;-81
2022/07/27 08:45:18;;;;;;;;;;;;;;;23.31;44.57;100646.13;1667887;84;20169;-81
2022/07/27 08:47:44;;;;;;;;;;;;;;;23.21;44.30;100650.03;1668126;85;21652;-82
2022/07/27 08:50:22;;;;;;;;;;;;;;;23.28;44.27;100642.53;1668021;85;20193;-81
2022/07/27 08:53:02;;;;;;;;;;;;;;;23.47;44.17;100643.69;1668175;85;20454;-81
2022/07/27 08:55:37;;;;;;;;;;;;;;;23.59;43.99;100645.76;1668147;85;20178;-81
2022/07/27 08:58:03;;;;;;;;;;;;;;;23.28;43.66;100648.52;1668099;86;20188;-81
2022/07/27 09:00:30;;;;;;;;;;;;;;;23.11;43.33;100632.72;1668063;86;21594;-81
2022/07/27 09:02:56;;;;;;;;;;;;;;;23.27;43.20;100635.44;1667899;85;20162;-82
2022/07/27 09:05:21;;;;;;;;;;;;;;;23.05;42.98;100632.31;1668132;84;20629;-81
2022/07/27 09:07:47;;;;;;;;;;;;;;;23.07;43.02;100629.66;1668142;86;20181;-81
2022/07/27 09:10:33;;;;;;;;;;;;;;;22.76;42.79;100626.91;1668127;86;20776;-81
2022/07/27 09:12:59;;;;;;;;;;;;;;;22.70;42.81;100627.06;1668091;86;21609;-81
2022/07/27 09:15:25;;;;;;;;;;;;;;;22.74;42.86;100619.55;1653438;86;20220;-81
2022/07/27 09:17:51;;;;;;;;;;;;;;;22.92;42.67;100630.75;1668319;86;20185;-81
2022/07/27 09:20:18;;;;;;;;;;;;;;;22.66;42.62;100623.18;1668288;85;20181;-81
2022/07/27 09:22:52;;;;;;;;;;;;;;;22.77;42.59;100624.49;1668326;86;20567;-81
2022/07/27 09:25:22;;;;;;;;;;;;;;;22.89;42.47;100629.35;1671939;85;21546;-81
2022/07/27 09:27:48;;;;;;;;;;;;;;;23.02;42.30;100632.81;1670315;85;20396;-81
2022/07/27 09:30:16;;;;;;;;;;;;;;;22.85;41.90;100628.72;1674605;84;20142;-81
2022/07/27 09:32:54;;;;;;;;;;;;;;;22.68;41.91;100625.14;1673228;84;20447;-81
2022/07/27 09:35:25;;;;;;;;;;;;;;;22.53;41.57;100637.05;1673301;85;20166;-81
2022/07/27 09:37:51;;;;;;;;;;;;;;;22.27;41.51;100631.09;1673433;84;21356;-81
2022/07/27 09:40:19;;;;;;;;;;;;;;;22.38;41.50;100625.33;1673356;84;20204;-81
2022/07/27 09:42:45;;;;;;;;;;;;;;;22.55;41.43;100624.05;1673463;84;20174;-81
2022/07/27 09:45:32;;;;;;;;;;;;;;;22.66;41.40;100623.18;1672970;84;20240;-81
2022/07/27 09:48:16;;;;;;;;;;;;;;;22.93;41.34;100626.97;1672455;85;20217;-81
2022/07/27 09:51:01;;;;;;;;;;;;;;;23.15;41.11;100632.52;1672891;85;22052;-81
2022/07/27 09:53:28;;;;;;;;;;;;;;;23.20;40.77;100630.69;1674214;85;20142;-81
2022/07/27 09:56:06;;;;;;;;;;;;;;;23.05;40.50;100633.14;1673265;84;20147;-81
2022/07/27 09:58:43;;;;;;;;;;;;;;;23.03;40.58;100627.14;1673130;84;20146;-80
2022/07/27 10:01:11;;;;;;;;;;;;;;;22.87;40.30;100623.84;1673331;84;20409;-81
2022/07/27 10:03:38;;;;;;;;;;;;;;;22.75;40.16;100628.53;1673359;84;22160;-81
2022/07/27 10:06:04;;;;;;;;;;;;;;;22.70;40.11;100627.06;1673364;84;20716;-81
2022/07/27 10:08:31;;;;;;;;;;;;;;;22.77;39.87;100622.30;1673343;85;20224;-81
2022/07/27 10:10:57;;;;;;;;;;;;;;;22.87;39.81;100615.16;1673143;85;20187;-81
2022/07/27 10:13:26;;;;;;;;;;;;;;;23.15;39.80;100625.71;1671910;84;20211;-80
2022/07/27 10:15:52;;;;;;;;;;;;;;;23.40;39.54;100616.04;1669870;84;21399;-80
2022/07/27 10:18:41;;;;;;;;;;;;;;;23.47;38.59;100623.27;1683328;83;20203;-80
2022/07/27 10:21:08;;;;;;;;;;;;;;;23.28;38.02;100626.20;1674567;84;20170;-79
2022/07/27 10:23:36;;;;;;;;;;;;;;;23.33;37.47;100626.27;1657667;86;20496;-80
2022/07/27 10:26:23;;;;;;;;;;;;;;;23.39;36.96;100625.30;1662655;86;20174;-80
2022/07/27 10:29:03;;;;;;;;;;;;;;;23.42;36.58;100618.55;1646322;84;21358;-80
2022/07/27 10:31:36;;;;;;;;;;;;;;;23.48;36.19;100637.97;1671909;84;20185;-80
2022/07/27 10:34:14;;;;;;;;;;;;;;;23.47;36.20;100633.59;1667061;84;20217;-80
2022/07/27 10:36:49;;;;;;;;;;;;;;;23.27;36.13;100642.23;1664831;85;20187;-81
2022/07/27 10:39:28;;;;;;;;;;;;;;;23.35;36.12;100639.11;1666274;86;20241;-81
2022/07/27 10:41:58;;;;;;;;;;;;;;;23.16;36.14;100652.66;1665334;84;21483;-80
2022/07/27 10:44:27;;;;;;;;;;;;;;;23.32;36.30;100648.31;1629265;85;20193;-80
2022/07/27 10:46:58;;;;;;;;;;;;;;;23.16;36.09;100648.58;1626032;87;20167;-80
2022/07/27 10:49:26;;;;;;;;;;;;;;;22.80;36.14;100649.00;1644963;86;20194;-80
2022/07/27 10:51:52;;;;;;;;;;;;;;;22.55;36.36;100643.91;1659787;86;20180;-80
2022/07/27 10:54:31;;;;;;;;;;;;;;;22.45;36.49;100641.53;1672708;84;21948;-79
2022/07/27 10:56:57;;;;;;;;;;;;;;;22.29;36.65;100637.13;1620888;87;20187;-79
2022/07/27 10:59:45;;;;;;;;;;;;;;;22.23;36.81;100634.03;1661028;84;20183;-80
2022/07/27 11:02:12;;;;;;;;;;;;;;;22.21;37.02;100632.59;1660143;84;20213;-80
2022/07/27 11:04:49;;;;;;;;;;;;;;;22.15;37.24;100634.39;1667027;85;20173;-80
2022/07/27 11:07:23;;;;;;;;;;;;;;;22.21;37.36;100630.70;1653602;84;21833;-80
2022/07/27 11:09:51;;;;;;;;;;;;;;;22.38;37.54;100630.77;1657450;86;20183;-80
2022/07/27 11:12:17;;;;;;;;;;;;;;;22.43;37.56;100628.70;1654424;85;20187;-80
2022/07/27 11:14:48;;;;;;;;;;;;;;;22.44;37.51;100623.56;1671048;85;20156;-80
2022/07/27 11:17:17;;;;;;;;;;;;;;;22.50;37.54;100621.22;1666972;85;20622;-80
2022/07/27 11:19:43;;;;;;;;;;;;;;;22.54;37.42;100625.11;1671172;84;21279;-80
2022/07/27 11:22:09;;;;;;;;;;;;;;;22.45;37.34;100628.73;1669392;84;20732;-80
2022/07/27 11:24:35;;;;;;;;;;;;;;;22.67;37.43;100627.56;1695160;84;20181;-80
2022/07/27 11:27:01;;;;;;;;;;;;;;;23.01;37.38;100636.63;1697054;83;20433;-80
2022/07/27 11:29:27;;;;;;;;;;;;;;;23.01;37.00;100622.45;1687408;83;20196;-79
2022/07/27 11:31:53;;;;;;;;;;;;;;;22.94;36.75;100609.55;1670534;84;21207;-79
2022/07/27 11:34:34;;;;;;;;;;;;;;;22.99;36.73;100616.98;1696098;84;20336;-80
2022/07/27 11:37:02;;;;;;;;;;;;;;;23.09;36.70;100620.70;1642817;86;20595;-79
2022/07/27 11:39:31;;;;;;;;;;;;;;;23.36;36.41;100624.41;1627422;86;20173;-79
2022/07/27 11:41:59;;;;;;;;;;;;;;;23.34;36.13;100625.20;1645233;86;20484;-79
2022/07/27 11:44:26;;;;;;;;;;;;;;;23.27;36.07;100628.62;1645590;85;21911;-79
2022/07/27 11:46:52;;;;;;;;;;;;;;;23.53;35.94;100618.17;1645873;86;20485;-79
2022/07/27 11:49:27;;;;;;;;;;;;;;;23.72;35.49;100623.08;1645924;87;20192;-79
2022/07/27 11:51:56;;;;;;;;;;;;;;;23.97;35.21;100616.33;1648506;86;20160;-79
2022/07/27 11:54:23;;;;;;;;;;;;;;;23.98;35.02;100628.89;1645597;86;20172;-79
2022/07/27 11:56:52;;;;;;;;;;;;;;;23.60;34.89;100627.83;1646075;86;21371;-79
2022/07/27 11:59:24;;;;;;;;;;;;;;;23.42;34.98;100624.53;1645498;86;20153;-78
2022/07/27 12:02:02;;;;;;;;;;;;;;;23.33;35.08;100617.27;1646069;87;20187;-79
2022/07/27 12:04:32;;;;;;;;;;;;;;;23.22;35.15;100616.28;1645944;87;20163;-79
2022/07/27 12:07:02;;;;;;;;;;;;;;;23.04;35.24;100615.19;1648484;87;20172;-79
2022/07/27 12:09:28;;;;;;;;;;;;;;;23.06;35.38;100610.31;1645966;87;21274;-79
2022/07/27 12:11:57;;;;;;;;;;;;;;;23.25;35.45;100613.63;1645789;86;20199;-78
2022/07/27 12:14:33;;;;;;;;;;;;;;;23.32;35.29;100623.28;1645679;86;20184;-79
2022/07/27 12:17:10;;;;;;;;;;;;;;;23.27;35.37;100609.58;1651885;86;20171;-79
2022/07/27 12:19:37;;;;;;;;;;;;;;;23.44;35.43;100604.14;1645715;87;20372;-79
2022/07/27 12:22:03;;;;;;;;;;;;;;;23.48;35.16;100616.72;1642664;86;21383;-79
2022/07/27 12:24:36;;;;;;;;;;;;;;;23.43;34.92;100615.30;1640951;87;20178;-79
2022/07/27 12:27:07;;;;;;;;;;;;;;;23.48;34.74;100601.75;1673794;84;20427;-79
2022/07/27 12:29:37;;;;;;;;;;;;;;;23.57;34.45;100604.35;1676309;85;20494;-79
2022/07/27 12:32:03;;;;;;;;;;;;;;;23.65;34.22;100599.28;1673412;85;20167;-79
2022/07/27 12:34:34;;;;;;;;;;;;;;;23.76;34.22;100598.36;1681089;84;22451;-79
2022/07/27 12:36:59;;;;;;;;;;;;;;;23.91;34.29;100600.47;1684511;84;20570;-79
2022/07/27 12:39:26;;;;;;;;;;;;;;;23.61;34.09;100609.03;1687911;84;20255;-79